Time;durP1;ratioP1;P1;durP2;ratioP2;P2;SDS_P1;SDS_P2;PMS_P1;PMS_P2;Temp;Humidity;BMP_temperature;BMP_pressure;BME280_temperature;BME280_humidity;BME280_pressure;Samples;Min_cycle;Max_cycle;Signal;HPM_P1;HPM_P2
2021/06/20 00:01:39;;;;;;;4.40;2.72;;;;;;;26.39;51.58;99919.80;1837648;77;21995;-68
2021/06/20 00:04:06;;;;;;;3.27;2.60;;;;;;;26.39;51.60;99923.33;1822444;78;21536;-68
2021/06/20 00:06:36;;;;;;;7.28;2.25;;;;;;;26.37;51.65;99918.69;1839075;77;21045;-67
2021/06/20 00:09:13;;;;;;;8.33;3.02;;;;;;;26.34;51.68;99919.22;1822068;77;21069;-68
2021/06/20 00:11:43;;;;;;;7.55;2.72;;;;;;;26.31;51.81;99914.33;1821587;77;20994;-67
2021/06/20 00:14:11;;;;;;;5.53;2.40;;;;;;;26.27;51.84;99918.13;1838592;77;21497;-68
2021/06/20 00:16:39;;;;;;;5.12;2.17;;;;;;;26.27;51.91;99921.39;1842098;77;21018;-68
2021/06/20 00:19:06;;;;;;;4.70;2.45;;;;;;;26.27;51.94;99918.13;1837264;77;21602;-68
2021/06/20 00:21:34;;;;;;;5.55;2.40;;;;;;;26.27;51.90;99923.57;1844572;76;21040;-68
2021/06/20 00:24:00;;;;;;;3.17;2.30;;;;;;;26.27;51.96;99924.13;1840592;77;21087;-68
2021/06/20 00:26:27;;;;;;;5.72;3.00;;;;;;;26.26;52.08;99925.20;1854966;77;22610;-68
2021/06/20 00:28:56;;;;;;;8.30;2.50;;;;;;;26.25;52.12;99924.91;1847782;77;20996;-67
2021/06/20 00:31:22;;;;;;;9.30;2.75;;;;;;;26.25;52.09;99920.30;1849338;77;21551;-69
2021/06/20 00:33:48;;;;;;;5.87;2.50;;;;;;;26.26;52.14;99911.58;1853727;77;21013;-68
2021/06/20 00:36:15;;;;;;;5.90;2.50;;;;;;;26.26;52.14;99923.28;1843908;75;21515;-68
2021/06/20 00:38:41;;;;;;;5.03;2.72;;;;;;;26.24;52.15;99919.20;1831728;77;21145;-67
2021/06/20 00:41:08;;;;;;;5.00;2.62;;;;;;;26.23;52.18;99921.62;1854968;77;21029;-68
2021/06/20 00:43:35;;;;;;;7.25;2.50;;;;;;;26.21;52.28;99918.36;1851863;77;21013;-68
2021/06/20 00:46:03;;;;;;;4.58;2.72;;;;;;;26.20;52.21;99918.09;1839466;77;21527;-67
2021/06/20 00:48:31;;;;;;;5.35;2.47;;;;;;;26.20;52.23;99932.52;1859242;77;21536;-67
2021/06/20 00:50:57;;;;;;;6.17;2.52;;;;;;;26.18;52.31;99937.42;1842143;77;21139;-68
2021/06/20 00:53:23;;;;;;;6.17;2.47;;;;;;;26.17;52.31;99935.77;1843329;77;21473;-67
2021/06/20 00:55:50;;;;;;;8.28;2.55;;;;;;;26.16;52.30;99941.50;1836069;77;21239;-67
2021/06/20 00:58:20;;;;;;;3.37;2.42;;;;;;;26.09;52.30;99921.31;1826760;77;21002;-68
2021/06/20 01:00:46;;;;;;;5.33;2.75;;;;;;;26.17;52.29;99937.68;1833297;77;21016;-68
2021/06/20 01:03:13;;;;;;;5.87;2.37;;;;;;;26.17;52.34;99933.05;1848572;77;21101;-68
2021/06/20 01:05:41;;;;;;;4.67;2.80;;;;;;;26.16;52.29;99932.78;1850766;77;21810;-68
2021/06/20 01:08:08;;;;;;;3.10;2.35;;;;;;;26.17;52.31;99937.68;1838700;77;21489;-68
2021/06/20 01:10:36;;;;;;;6.95;2.75;;;;;;;26.17;52.34;99952.66;1822397;77;21064;-68
2021/06/20 01:13:05;;;;;;;5.37;2.58;;;;;;;26.16;52.38;99946.95;1842071;77;20996;-69
2021/06/20 01:15:32;;;;;;;5.67;2.60;;;;;;;26.15;52.39;99948.02;1846416;77;21134;-68
2021/06/20 01:17:59;;;;;;;7.47;2.40;;;;;;;26.14;52.39;99954.56;1847181;77;21042;-68
2021/06/20 01:20:27;;;;;;;4.75;2.37;;;;;;;26.14;52.35;99949.13;1854432;77;21147;-69
2021/06/20 01:22:54;;;;;;;5.28;2.52;;;;;;;26.12;52.34;99939.05;1836239;76;21490;-68
2021/06/20 01:25:23;;;;;;;5.03;2.55;;;;;;;26.11;52.35;99943.64;1829413;77;21061;-69
2021/06/20 01:27:58;;;;;;;4.62;2.20;;;;;;;26.12;52.30;99956.19;1854878;77;21462;-67
2021/06/20 01:30:30;;;;;;;5.50;2.85;;;;;;;26.12;52.33;99962.19;1846625;77;21089;-68
2021/06/20 01:32:58;;;;;;;5.60;2.75;;;;;;;26.11;52.39;99956.45;1856202;77;28218;-69
2021/06/20 01:35:25;;;;;;;4.53;2.60;;;;;;;26.09;52.56;99958.06;1780218;80;21509;-68
2021/06/20 01:37:52;;;;;;;4.08;2.47;;;;;;;26.08;52.48;99959.17;1807759;78;21041;-73
2021/06/20 01:40:20;;;;;;;9.05;2.65;;;;;;;26.07;52.35;99957.52;1816575;78;21126;-71
2021/06/20 01:42:47;;;;;;;10.60;2.52;;;;;;;26.07;52.38;99962.95;1794003;78;21036;-71
2021/06/20 01:45:16;;;;;;;3.55;2.22;;;;;;;26.06;52.51;99970.31;1784029;79;21561;-70
2021/06/20 01:47:43;;;;;;;6.03;2.60;;;;;;;26.04;52.59;99972.48;1789431;79;21088;-70
2021/06/20 01:50:14;;;;;;;4.17;2.20;;;;;;;26.04;52.68;99975.20;1782771;79;21108;-69
2021/06/20 01:52:43;;;;;;;4.97;3.03;;;;;;;26.04;52.58;99971.67;1784281;79;21150;-69
2021/06/20 01:55:12;;;;;;;5.10;2.50;;;;;;;26.03;52.52;99972.74;1768997;80;21134;-68
2021/06/20 01:57:42;;;;;;;6.17;2.65;;;;;;;26.02;52.46;99970.58;1808818;78;21108;-69
2021/06/20 02:00:15;;;;;;;6.47;2.58;;;;;;;26.01;52.61;99964.03;1815018;78;21660;-70
2021/06/20 02:02:42;;;;;;;7.70;2.52;;;;;;;25.98;52.81;99959.94;1785593;80;26640;-70
2021/06/20 02:05:10;;;;;;;8.20;2.35;;;;;;;25.98;52.92;99964.55;1785069;80;21135;-67
2021/06/20 02:07:38;;;;;;;4.35;2.70;;;;;;;25.96;52.99;99963.98;1759534;80;21073;-68
2021/06/20 02:10:10;;;;;;;8.48;2.42;;;;;;;25.94;52.96;99960.20;1799941;78;21512;-69
2021/06/20 02:12:36;;;;;;;6.28;2.42;;;;;;;25.93;53.02;99959.91;1794383;79;21257;-69
2021/06/20 02:15:07;;;;;;;4.75;2.80;;;;;;;25.91;53.26;99962.08;1806903;78;21099;-68
2021/06/20 02:17:35;;;;;;;3.87;2.55;;;;;;;25.87;53.35;99959.58;1773906;79;21049;-69
2021/06/20 02:20:10;;;;;;;6.40;2.62;;;;;;;25.86;53.29;99951.97;1788774;79;21004;-68
2021/06/20 02:22:38;;;;;;;4.03;2.55;;;;;;;25.86;53.18;99946.52;1777550;79;21083;-69
2021/06/20 02:25:07;;;;;;;5.12;2.60;;;;;;;25.86;53.07;99952.48;1781514;79;21001;-70
2021/06/20 02:27:34;;;;;;;3.90;2.50;;;;;;;25.85;53.14;99948.14;1782429;79;21052;-70
2021/06/20 02:30:00;;;;;;;5.22;2.30;;;;;;;25.83;53.31;99951.67;1777376;79;21151;-68
2021/06/20 02:32:29;;;;;;;5.08;2.65;;;;;;;25.83;53.42;99948.95;1769787;79;21052;-67
2021/06/20 02:34:55;;;;;;;5.00;2.50;;;;;;;25.81;53.51;99944.31;1771757;79;21096;-70
2021/06/20 02:38:38;;;;;;;9.58;2.55;;;;;;;25.83;53.60;99937.52;1886292;75;22299;-69
2021/06/20 02:41:05;;;;;;;4.20;2.52;;;;;;;25.75;53.55;99942.10;1855967;77;20957;-68
2021/06/20 02:43:33;;;;;;;2.40;2.00;;;;;;;25.74;53.53;99941.00;1847816;77;20949;-68
2021/06/20 02:46:00;;;;;;;5.58;2.37;;;;;;;25.73;53.50;99945.63;1847792;77;21029;-69
2021/06/20 02:48:26;;;;;;;7.45;2.30;;;;;;;25.73;53.49;99944.78;1859624;77;20945;-69
2021/06/20 02:50:52;;;;;;;3.55;2.02;;;;;;;25.73;53.39;99950.23;1847053;77;21612;-68
2021/06/20 02:53:19;;;;;;;3.45;2.30;;;;;;;25.74;53.31;99951.88;1853272;77;21586;-69
2021/06/20 02:55:45;;;;;;;2.37;2.00;;;;;;;25.73;53.23;99946.98;1843568;77;21454;-68
2021/06/20 02:58:12;;;;;;;3.50;2.20;;;;;;;25.74;53.15;99945.08;1835219;77;21025;-68
2021/06/20 03:00:38;;;;;;;6.50;2.52;;;;;;;25.74;53.06;99939.64;1850078;77;21012;-68
2021/06/20 03:03:05;;;;;;;2.15;1.80;;;;;;;25.73;53.02;99944.27;1847215;77;21504;-69
2021/06/20 03:05:32;;;;;;;3.55;2.47;;;;;;;25.73;53.32;99940.70;1841661;77;21540;-69
2021/06/20 03:07:58;;;;;;;2.62;2.02;;;;;;;25.72;53.58;99940.45;1837457;77;21124;-69
2021/06/20 03:10:25;;;;;;;3.33;2.15;;;;;;;25.71;53.59;99936.91;1843142;77;20993;-69
2021/06/20 03:12:51;;;;;;;5.12;2.42;;;;;;;25.70;53.49;99937.44;1826144;77;21009;-68
2021/06/20 03:15:21;;;;;;;4.60;2.10;;;;;;;25.69;53.47;99934.45;1840641;77;21103;-69
2021/06/20 03:17:49;;;;;;;5.90;2.83;;;;;;;25.71;53.38;99934.19;1826324;77;21065;-70
2021/06/20 03:20:15;;;;;;;5.35;2.90;;;;;;;25.71;53.40;99931.47;1833142;77;21082;-69
2021/06/20 03:22:41;;;;;;;3.27;2.30;;;;;;;25.72;53.55;99939.09;1838014;77;20980;-70
2021/06/20 03:25:10;;;;;;;3.60;2.80;;;;;;;25.70;53.64;99940.16;1849553;77;21041;-69
2021/06/20 03:27:37;;;;;;;4.53;2.65;;;;;;;25.70;53.76;99944.23;1832619;77;21075;-69
2021/06/20 03:30:06;;;;;;;5.37;2.80;;;;;;;25.69;53.99;99954.02;1844085;77;21025;-69
2021/06/20 03:32:33;;;;;;;5.20;2.95;;;;;;;25.67;54.18;99961.10;1831510;77;21098;-69
2021/06/20 03:34:59;;;;;;;3.12;2.92;;;;;;;25.65;54.33;99971.42;1828111;77;21553;-67
2021/06/20 03:37:26;;;;;;;5.20;3.35;;;;;;;25.65;54.44;99974.15;1846651;77;22061;-69
2021/06/20 03:39:53;;;;;;;5.17;3.02;;;;;;;25.64;54.51;99982.02;1842758;77;21010;-70
2021/06/20 03:42:19;;;;;;;8.85;2.87;;;;;;;25.64;54.57;99979.30;1833876;77;21060;-70
2021/06/20 03:44:46;;;;;;;3.70;2.98;;;;;;;25.64;54.68;99980.66;1837908;77;21111;-68
2021/06/20 03:47:12;;;;;;;5.33;3.00;;;;;;;25.64;54.86;99979.30;1835183;77;21040;-68
2021/06/20 03:49:39;;;;;;;4.45;2.90;;;;;;;25.63;54.99;99980.91;1836259;77;20997;-68
2021/06/20 03:52:06;;;;;;;3.87;3.35;;;;;;;25.63;55.00;99972.23;1831256;77;21005;-69
2021/06/20 03:54:32;;;;;;;4.87;3.40;;;;;;;25.62;55.10;99971.94;1801816;77;21524;-70
2021/06/20 03:57:01;;;;;;;6.20;3.02;;;;;;;25.63;55.30;99967.31;1839803;77;21152;-67
2021/06/20 03:59:29;;;;;;;7.45;3.30;;;;;;;25.63;55.34;99959.99;1833298;77;21025;-69
2021/06/20 04:01:57;;;;;;;4.83;2.67;;;;;;;25.62;55.30;99961.06;1787311;78;20981;-69
2021/06/20 04:04:23;;;;;;;6.55;2.72;;;;;;;25.62;55.16;99948.82;1776902;80;21138;-68
2021/06/20 04:06:50;;;;;;;5.22;2.70;;;;;;;25.62;54.98;99940.66;1767892;80;21088;-68
2021/06/20 04:09:17;;;;;;;3.20;2.52;;;;;;;25.62;55.00;99941.20;1761149;80;21097;-68
2021/06/20 04:11:46;;;;;;;5.72;3.17;;;;;;;25.61;55.06;99934.11;1741599;80;21044;-68
2021/06/20 04:14:13;;;;;;;4.72;2.75;;;;;;;25.61;55.03;99931.39;1771493;80;21053;-68
2021/06/20 04:16:41;;;;;;;4.78;3.42;;;;;;;25.60;55.03;99934.66;1761615;81;21087;-68
2021/06/20 04:19:09;;;;;;;6.92;5.25;;;;;;;25.61;54.86;99942.27;1776052;78;21580;-70
2021/06/20 04:21:36;;;;;;;5.60;3.40;;;;;;;25.61;54.67;99943.63;1791461;78;21124;-68
2021/06/20 04:24:05;;;;;;;6.30;2.80;;;;;;;25.60;54.55;99938.74;1797308;78;21545;-68
2021/06/20 04:26:32;;;;;;;5.62;2.92;;;;;;;25.61;54.38;99925.95;1798200;78;21045;-68
2021/06/20 04:28:59;;;;;;;2.92;2.35;;;;;;;25.62;54.25;99935.77;1776640;78;21080;-69
2021/06/20 04:31:26;;;;;;;6.97;3.00;;;;;;;25.61;54.18;99924.08;1801226;78;21161;-68
2021/06/20 04:33:52;;;;;;;4.75;2.52;;;;;;;25.60;54.00;99926.50;1794320;78;22306;-68
2021/06/20 04:36:19;;;;;;;3.08;2.40;;;;;;;25.61;53.93;99926.80;1802748;78;20990;-67
2021/06/20 04:38:47;;;;;;;4.03;2.45;;;;;;;25.60;53.89;99918.34;1789743;79;21084;-69
2021/06/20 04:41:15;;;;;;;3.40;2.35;;;;;;;25.60;53.85;99926.50;1798486;78;21048;-69
2021/06/20 04:46:28;;;;;;;8.10;3.30;;;;;;;25.60;53.88;99912.09;1805491;78;21650;-69
2021/06/20 04:48:57;;;;;;;7.20;2.80;;;;;;;25.60;54.00;99907.46;1784404;78;21061;-69
2021/06/20 04:51:28;;;;;;;2.90;2.58;;;;;;;25.59;54.17;99904.45;1787691;78;21009;-69
2021/06/20 04:53:54;;;;;;;5.12;2.72;;;;;;;25.58;54.23;99903.38;1748277;80;21084;-68
2021/06/20 04:56:21;;;;;;;5.75;3.00;;;;;;;25.58;54.17;99902.83;1807956;78;21639;-67
2021/06/20 04:58:48;;;;;;;4.87;2.47;;;;;;;25.60;54.16;99909.37;1794679;78;21110;-69
2021/06/20 05:01:14;;;;;;;4.03;2.80;;;;;;;25.59;54.20;99900.37;1806249;78;20987;-70
2021/06/20 05:03:43;;;;;;;4.20;2.45;;;;;;;25.59;54.18;99907.17;1782153;80;21014;-69
2021/06/20 05:06:09;;;;;;;4.85;2.87;;;;;;;25.57;54.24;99901.17;1790659;79;21093;-69
2021/06/20 05:08:36;;;;;;;7.15;2.60;;;;;;;25.55;54.20;99906.61;1790409;79;21001;-69
2021/06/20 05:11:05;;;;;;;4.28;2.62;;;;;;;25.51;54.28;99905.77;1807505;78;21532;-69
2021/06/20 05:13:32;;;;;;;3.92;2.50;;;;;;;25.52;54.14;99910.69;1811885;78;22046;-69
2021/06/20 05:15:59;;;;;;;6.17;2.40;;;;;;;25.53;54.11;99907.42;1791893;79;21115;-70
2021/06/20 05:18:27;;;;;;;5.05;2.60;;;;;;;25.54;54.04;99903.63;1791805;78;21955;-72
2021/06/20 05:20:53;;;;;;;6.25;2.50;;;;;;;25.57;53.95;99900.36;1791028;78;21041;-69
2021/06/20 05:23:21;;;;;;;3.12;2.30;;;;;;;25.61;53.89;99902.83;1814414;78;21068;-69
2021/06/20 05:25:50;;;;;;;4.10;2.30;;;;;;;25.64;53.79;99905.84;1821007;78;21611;-68
2021/06/20 05:28:19;;;;;;;4.83;2.33;;;;;;;25.65;53.78;99895.26;1790395;80;21518;-69
2021/06/20 05:30:47;;;;;;;3.27;2.40;;;;;;;25.66;53.76;99902.32;1789154;78;21032;-70
2021/06/20 05:33:17;;;;;;;5.83;2.20;;;;;;;25.70;53.81;99896.63;1784394;79;21082;-69
2021/06/20 05:35:45;;;;;;;3.37;2.20;;;;;;;25.73;53.81;99901.26;1780502;78;22248;-68
2021/06/20 05:38:14;;;;;;;3.05;2.30;;;;;;;25.76;53.77;99906.18;1772083;79;21000;-69
2021/06/20 05:40:41;;;;;;;4.83;2.72;;;;;;;25.77;53.64;99896.40;1762126;79;21006;-69
2021/06/20 05:43:08;;;;;;;4.33;2.30;;;;;;;25.79;53.65;99901.59;1765286;78;21084;-70
2021/06/20 05:45:34;;;;;;;3.83;2.15;;;;;;;25.81;53.67;99906.22;1766093;78;21511;-70
2021/06/20 05:48:01;;;;;;;4.95;2.33;;;;;;;25.83;53.75;99902.69;1776846;78;21103;-68
2021/06/20 05:50:27;;;;;;;4.05;2.08;;;;;;;25.88;54.17;99898.61;1770413;79;21005;-68
2021/06/20 05:53:00;;;;;;;3.40;2.30;;;;;;;25.95;54.32;99892.42;1775410;79;21122;-69
2021/06/20 05:55:26;;;;;;;9.15;3.42;;;;;;;26.03;54.38;99888.36;1760248;80;21358;-68
2021/06/20 05:57:53;;;;;;;6.12;3.35;;;;;;;26.09;55.00;99890.02;1765477;79;21591;-67
2021/06/20 06:00:20;;;;;;;12.10;3.80;;;;;;;26.14;55.18;99890.04;1790453;79;21092;-69
2021/06/20 06:02:47;;;;;;;7.83;3.47;;;;;;;26.19;55.10;99892.78;1788361;79;21010;-69
2021/06/20 06:05:13;;;;;;;8.88;3.45;;;;;;;26.24;55.18;99890.05;1790418;79;21021;-68
2021/06/20 06:07:40;;;;;;;4.55;2.55;;;;;;;26.30;55.09;99896.34;1789214;79;21045;-69
2021/06/20 06:10:08;;;;;;;4.90;2.70;;;;;;;26.35;54.52;99896.88;1762603;80;21002;-69
2021/06/20 06:12:34;;;;;;;2.70;2.50;;;;;;;26.37;53.67;99900.99;1777410;80;21722;-70
2021/06/20 06:15:04;;;;;;;3.80;3.50;;;;;;;26.39;53.27;99898.81;1771825;79;21061;-69
2021/06/20 06:17:30;;;;;;;2.85;2.25;;;;;;;26.41;52.84;99902.09;1779833;80;21076;-69
2021/06/20 06:19:57;;;;;;;3.12;2.60;;;;;;;26.43;52.48;99898.55;1784179;80;21009;-70
2021/06/20 06:22:23;;;;;;;6.15;2.65;;;;;;;26.44;52.27;99902.92;1787295;79;21083;-70
2021/06/20 06:24:51;;;;;;;5.00;2.20;;;;;;;26.45;52.20;99895.01;1787665;79;21113;-69
2021/06/20 06:27:17;;;;;;;3.22;2.27;;;;;;;26.47;52.11;99901.00;1770964;79;21032;-70
2021/06/20 06:29:44;;;;;;;2.55;2.17;;;;;;;26.48;52.11;99896.36;1775968;79;21042;-70
2021/06/20 06:32:10;;;;;;;3.95;2.50;;;;;;;26.50;52.17;99907.80;1775939;79;21029;-68
2021/06/20 06:34:37;;;;;;;3.20;2.10;;;;;;;26.52;52.25;99907.02;1768762;80;21032;-69
2021/06/20 06:37:05;;;;;;;5.90;2.17;;;;;;;26.56;52.29;99903.19;1786179;79;21865;-70
2021/06/20 06:39:31;;;;;;;5.30;2.47;;;;;;;26.59;52.05;99895.33;1783010;79;21603;-69
2021/06/20 06:41:58;;;;;;;2.50;2.22;;;;;;;26.63;51.81;99891.52;1785584;79;21098;-69
2021/06/20 06:44:25;;;;;;;5.40;2.33;;;;;;;26.65;51.41;99891.52;1788535;80;21048;-69
2021/06/20 06:46:52;;;;;;;4.12;2.10;;;;;;;26.66;51.09;99895.89;1768487;79;21636;-69
2021/06/20 06:49:19;;;;;;;5.33;2.37;;;;;;;26.68;50.52;99899.71;1789727;80;21765;-69
2021/06/20 06:51:46;;;;;;;3.87;2.42;;;;;;;26.68;50.37;99906.52;1767768;79;21088;-69
2021/06/20 06:54:13;;;;;;;3.20;2.30;;;;;;;26.69;50.23;99912.23;1776150;79;21001;-69
2021/06/20 06:56:39;;;;;;;6.17;3.45;;;;;;;26.68;49.64;99907.88;1773773;79;21009;-69
2021/06/20 06:59:05;;;;;;;4.55;2.12;;;;;;;26.66;49.23;99905.98;1785112;79;21031;-70
2021/06/20 07:01:32;;;;;;;3.37;2.20;;;;;;;26.65;48.87;99899.69;1781424;79;21084;-70
2021/06/20 07:03:58;;;;;;;5.50;2.12;;;;;;;26.64;48.43;99898.62;1779698;79;21078;-70
2021/06/20 07:06:26;;;;;;;3.35;2.45;;;;;;;26.63;48.55;99895.05;1810018;78;21034;-69
2021/06/20 07:08:52;;;;;;;5.87;1.87;;;;;;;26.67;48.57;99893.42;1786860;80;20982;-69
2021/06/20 07:11:20;;;;;;;3.30;2.20;;;;;;;26.71;48.69;99886.08;1789716;78;21127;-70
2021/06/20 07:13:48;;;;;;;6.47;2.20;;;;;;;26.75;48.77;99888.53;1816704;78;21129;-69
2021/06/20 07:16:14;;;;;;;4.60;2.00;;;;;;;26.78;48.74;99883.36;1808629;78;21041;-70
2021/06/20 07:18:40;;;;;;;2.58;1.92;;;;;;;26.83;48.52;99884.73;1776834;78;21013;-69
2021/06/20 07:21:07;;;;;;;4.85;1.87;;;;;;;26.85;48.53;99889.36;1785378;78;21021;-69
2021/06/20 07:23:34;;;;;;;5.42;2.05;;;;;;;26.88;48.38;99880.63;1769198;79;21013;-70
2021/06/20 07:26:00;;;;;;;7.97;2.00;;;;;;;26.91;47.99;99884.73;1773928;79;23109;-69
2021/06/20 07:28:27;;;;;;;5.20;2.02;;;;;;;26.93;47.66;99874.92;1794199;79;20986;-69
2021/06/20 07:30:53;;;;;;;3.47;2.20;;;;;;;26.96;47.59;99881.17;1786681;79;21112;-70
2021/06/20 07:33:21;;;;;;;6.22;2.12;;;;;;;27.00;47.66;99878.98;1777447;79;21559;-69
2021/06/20 07:35:57;;;;;;;4.28;2.00;;;;;;;27.05;47.70;99885.80;1792203;79;21106;-70
2021/06/20 07:38:22;;;;;;;6.90;2.42;;;;;;;27.07;47.61;99875.44;1791924;80;21772;-69
2021/06/20 07:40:50;;;;;;;6.75;2.25;;;;;;;27.11;47.46;99872.98;1793220;79;21064;-71
2021/06/20 07:43:17;;;;;;;4.80;2.00;;;;;;;27.15;47.53;99878.16;1785084;79;21057;-70
2021/06/20 07:45:45;;;;;;;3.05;1.95;;;;;;;27.18;47.25;99884.44;1765141;79;20985;-69
2021/06/20 07:48:11;;;;;;;3.55;1.75;;;;;;;27.21;46.99;99891.23;1771899;79;21677;-70
2021/06/20 07:50:37;;;;;;;6.30;2.22;;;;;;;27.19;47.07;99884.69;1803500;78;21097;-69
2021/06/20 07:53:04;;;;;;;4.03;2.00;;;;;;;27.22;46.99;99893.70;1781500;79;21446;-68
2021/06/20 07:55:31;;;;;;;3.62;2.05;;;;;;;27.23;47.02;99892.59;1775566;80;21049;-70
2021/06/20 07:57:58;;;;;;;3.62;2.25;;;;;;;27.25;47.03;99893.19;1769686;80;21490;-70
2021/06/20 08:00:24;;;;;;;4.40;2.10;;;;;;;27.24;46.86;99886.61;1788270;79;21010;-69
2021/06/20 08:02:51;;;;;;;2.20;1.98;;;;;;;27.24;46.96;99878.42;1819546;78;21135;-70
2021/06/20 08:05:17;;;;;;;4.08;2.12;;;;;;;27.24;47.13;99878.42;1808041;78;21056;-70
2021/06/20 08:07:44;;;;;;;2.55;2.00;;;;;;;27.26;47.24;99868.90;1803876;78;20986;-68
2021/06/20 08:10:12;;;;;;;3.67;2.10;;;;;;;27.27;47.06;99869.70;1816762;78;21115;-69
2021/06/20 08:12:39;;;;;;;4.78;2.00;;;;;;;27.27;46.96;99866.98;1770257;80;21072;-70
2021/06/20 08:15:07;;;;;;;2.92;1.87;;;;;;;27.28;46.75;99855.55;1792426;79;21181;-70
2021/06/20 08:17:34;;;;;;;2.70;2.30;;;;;;;27.29;46.65;99844.34;1784347;79;21049;-70
2021/06/20 08:20:00;;;;;;;9.20;2.60;;;;;;;27.28;46.25;99840.55;1783860;79;21054;-70
2021/06/20 08:22:27;;;;;;;2.55;2.08;;;;;;;27.29;46.11;99835.34;1788995;79;21108;-70
2021/06/20 08:24:55;;;;;;;6.08;2.25;;;;;;;27.31;45.66;99838.61;1778725;79;21073;-70
2021/06/20 08:27:21;;;;;;;4.80;2.33;;;;;;;27.34;45.34;99825.24;1775248;80;21179;-70
2021/06/20 08:29:51;;;;;;;5.42;2.27;;;;;;;27.37;45.15;99817.05;1789421;79;21648;-70
2021/06/20 08:32:17;;;;;;;4.83;1.82;;;;;;;27.41;45.18;99818.12;1780445;79;21056;-70
2021/06/20 08:34:45;;;;;;;6.10;2.22;;;;;;;27.45;44.99;99820.58;1783433;79;21008;-70
2021/06/20 08:37:12;;;;;;;4.78;1.90;;;;;;;27.50;44.80;99823.83;1791409;79;21076;-70
2021/06/20 08:39:38;;;;;;;3.20;1.87;;;;;;;27.53;44.72;99814.55;1785322;79;21104;-69
2021/06/20 08:42:06;;;;;;;2.70;1.90;;;;;;;27.58;44.49;99818.63;1793462;79;20969;-69
2021/06/20 08:44:33;;;;;;;5.28;2.05;;;;;;;27.63;44.54;99817.22;1793121;79;21013;-70
2021/06/20 08:47:01;;;;;;;4.78;2.70;;;;;;;27.69;44.48;99819.94;1793177;79;21607;-69
2021/06/20 08:49:28;;;;;;;5.70;2.65;;;;;;;27.73;44.15;99814.19;1792938;79;21021;-70
2021/06/20 08:51:56;;;;;;;6.40;2.20;;;;;;;27.77;43.78;99817.42;1793097;79;21134;-71
2021/06/20 08:54:23;;;;;;;3.62;2.00;;;;;;;27.80;43.61;99811.97;1795033;79;21449;-70
2021/06/20 08:56:50;;;;;;;3.05;2.17;;;;;;;27.84;43.38;99815.77;1793045;79;21017;-70
2021/06/20 08:59:22;;;;;;;4.47;2.35;;;;;;;27.88;42.91;99805.95;1791822;79;21493;-69
2021/06/20 09:01:48;;;;;;;5.67;1.70;;;;;;;27.91;42.79;99805.92;1793079;79;21024;-69
2021/06/20 09:04:34;;;;;;;4.10;1.95;;;;;;;27.94;42.78;99802.09;1790362;79;21117;-69
2021/06/20 09:07:03;;;;;;;6.85;1.80;;;;;;;27.99;43.09;99808.89;1792494;79;21055;-71
2021/06/20 09:09:35;;;;;;;3.25;1.80;;;;;;;28.06;43.06;99798.20;1783535;79;21083;-69
2021/06/20 09:12:10;;;;;;;4.67;2.33;;;;;;;28.16;42.96;99784.47;1770828;80;21073;-70
2021/06/20 09:14:48;;;;;;;5.72;1.90;;;;;;;28.16;42.96;99784.47;1782908;79;20979;-70
2021/06/20 09:17:27;;;;;;;8.60;2.20;;;;;;;28.23;43.06;99784.97;1780348;79;21139;-70
2021/06/20 09:19:59;;;;;;;4.55;1.85;;;;;;;28.29;43.97;99787.12;1786261;79;21025;-71
2021/06/20 09:22:26;;;;;;;5.17;1.92;;;;;;;28.34;42.21;99786.53;1776505;79;21096;-70
2021/06/20 09:25:08;;;;;;;7.45;2.10;;;;;;;28.38;41.51;99782.69;1779400;80;20989;-70
2021/06/20 09:27:35;;;;;;;;;;;;;;;28.43;41.58;99779.36;1797562;79;21057;-70
2021/06/20 09:30:14;;;;;;;2.33;2.02;;;;;;;28.50;42.09;99776.84;1787560;79;21072;-70
2021/06/20 09:33:00;;;;;;;2.72;1.80;;;;;;;28.48;41.94;99773.03;1779869;79;21005;-69
2021/06/20 09:35:44;;;;;;;1.82;1.72;;;;;;;28.55;41.69;99776.28;1774442;79;21524;-69
2021/06/20 09:38:23;;;;;;;2.50;2.08;;;;;;;28.61;42.36;99768.30;1791621;79;21044;-68
2021/06/20 09:41:09;;;;;;;2.58;2.00;;;;;;;28.69;42.45;99767.42;1789856;79;20986;-70
2021/06/20 09:43:51;;;;;;;3.95;2.05;;;;;;;28.75;42.28;99759.43;1784363;79;21026;-69
2021/06/20 09:46:17;;;;;;;3.33;2.10;;;;;;;28.81;42.18;99768.64;1780794;79;20999;-69
2021/06/20 09:48:45;;;;;;;2.42;1.90;;;;;;;28.87;42.28;99762.58;1775359;80;21026;-70
2021/06/20 09:51:20;;;;;;;3.72;1.90;;;;;;;28.94;41.93;99762.25;1766928;80;22082;-70
2021/06/20 09:53:49;;;;;;;2.20;2.00;;;;;;;29.00;42.46;99752.31;1763720;80;21045;-71
2021/06/20 09:56:32;;;;;;;2.75;2.17;;;;;;;29.08;43.58;99755.53;1763830;79;21960;-70
2021/06/20 09:59:05;;;;;;;3.58;1.87;;;;;;;29.14;42.69;99755.19;1754940;80;21060;-70
2021/06/20 10:01:35;;;;;;;3.95;2.15;;;;;;;29.21;43.70;99758.96;1762967;80;20985;-69
2021/06/20 10:04:03;;;;;;;2.27;1.95;;;;;;;29.27;43.22;99750.95;1772042;79;21142;-70
2021/06/20 10:06:30;;;;;;;3.77;1.85;;;;;;;29.33;42.72;99750.33;1776246;80;21089;-70
2021/06/20 10:08:58;;;;;;;5.33;2.40;;;;;;;29.38;40.56;99755.19;1789881;80;21122;-70
2021/06/20 10:11:24;;;;;;;2.42;2.00;;;;;;;29.49;39.68;99756.42;1785847;80;21461;-70
2021/06/20 10:13:51;;;;;;;5.42;2.12;;;;;;;29.57;40.53;99744.81;1774674;79;21029;-69
2021/06/20 10:16:35;;;;;;;4.75;2.27;;;;;;;29.65;40.67;99751.55;1792620;78;21504;-70
2021/06/20 10:19:11;;;;;;;4.50;1.82;;;;;;;29.71;40.28;99751.20;1770868;80;21072;-70
2021/06/20 10:21:44;;;;;;;2.83;2.15;;;;;;;29.79;40.04;99751.12;1773329;79;21099;-70
2021/06/20 10:24:19;;;;;;;3.55;1.65;;;;;;;29.86;40.08;99746.06;1769835;80;21043;-69
2021/06/20 10:26:59;;;;;;;3.98;1.80;;;;;;;29.93;38.63;99730.65;1772333;79;21014;-69
2021/06/20 10:29:31;;;;;;;4.75;2.30;;;;;;;30.03;38.96;99738.70;1762852;80;21042;-69
2021/06/20 10:31:59;;;;;;;2.60;1.85;;;;;;;30.10;38.48;99726.81;1762684;79;21111;-69
2021/06/20 10:34:32;;;;;;;4.00;1.90;;;;;;;30.17;39.10;99725.89;1766749;79;21101;-68
2021/06/20 10:37:04;;;;;;;6.25;1.75;;;;;;;30.24;39.09;99726.86;1788775;79;21525;-70
2021/06/20 10:39:31;;;;;;;4.72;2.47;;;;;;;30.31;38.05;99727.33;1782789;78;21547;-69
2021/06/20 10:42:10;;;;;;;4.50;1.92;;;;;;;30.37;38.07;99727.48;1805058;78;21081;-70
2021/06/20 10:44:50;;;;;;;3.30;1.82;;;;;;;30.45;37.16;99717.77;1788312;78;21033;-69
2021/06/20 10:47:29;;;;;;;4.15;1.50;;;;;;;30.53;36.60;99711.58;1776667;79;21140;-69
2021/06/20 10:50:05;;;;;;;2.70;1.85;;;;;;;30.61;37.00;99721.03;1815920;78;21060;-70
2021/06/20 10:52:32;;;;;;;2.00;1.90;;;;;;;30.69;37.90;99720.33;1817169;78;21028;-71
2021/06/20 10:55:15;;;;;;;2.22;2.00;;;;;;;30.76;38.87;99718.01;1812240;78;21045;-69
2021/06/20 10:57:54;;;;;;;3.33;2.17;;;;;;;30.84;39.60;99711.58;1787145;80;21635;-70
2021/06/20 11:00:35;;;;;;;5.33;2.40;;;;;;;30.90;39.65;99712.56;1785801;78;21500;-70
2021/06/20 11:03:15;;;;;;;4.62;1.90;;;;;;;30.98;38.39;99714.34;1808381;78;21599;-69
2021/06/20 11:05:51;;;;;;;4.67;2.27;;;;;;;31.04;36.23;99713.12;1793886;78;21046;-70
2021/06/20 11:08:28;;;;;;;5.67;2.25;;;;;;;31.11;35.98;99714.34;1821517;78;21061;-69
2021/06/20 11:11:17;;;;;;;8.25;2.50;;;;;;;31.20;34.79;99713.07;1815935;78;20989;-70
2021/06/20 11:13:58;;;;;;;4.58;2.30;;;;;;;31.30;35.64;99702.44;1784837;78;21102;-69
2021/06/20 11:16:37;;;;;;;5.67;2.33;;;;;;;31.38;36.48;99692.66;1754987;80;21089;-69
2021/06/20 11:19:16;;;;;;;4.70;2.05;;;;;;;31.44;36.32;99704.58;1817752;78;21045;-69
2021/06/20 11:21:58;;;;;;;6.65;2.42;;;;;;;31.50;35.86;99680.61;1819007;78;20996;-70
2021/06/20 11:24:28;;;;;;;6.08;1.90;;;;;;;31.57;34.56;99698.84;1782988;79;20973;-70
2021/06/20 11:27:04;;;;;;;5.37;2.00;;;;;;;31.67;34.62;99699.17;1782825;79;21109;-69
2021/06/20 11:29:53;;;;;;;2.35;1.90;;;;;;;31.73;32.90;99703.42;1783529;78;21129;-70
2021/06/20 11:32:26;;;;;;;4.30;1.95;;;;;;;31.81;32.46;99700.50;1766590;79;21076;-69
2021/06/20 11:34:57;;;;;;;5.67;1.75;;;;;;;31.89;33.52;99690.13;1773347;79;21450;-69
2021/06/20 11:37:35;;;;;;;3.75;2.00;;;;;;;31.97;33.21;99700.39;1793402;79;20994;-69
2021/06/20 11:40:10;;;;;;;4.40;1.98;;;;;;;32.04;32.67;99698.03;1791195;80;22173;-69
2021/06/20 11:42:40;;;;;;;5.05;2.10;;;;;;;32.11;32.94;99701.16;1770000;80;21009;-65
2021/06/20 11:45:16;;;;;;;4.58;2.37;;;;;;;32.19;32.93;99713.90;1759690;80;21056;-70
2021/06/20 11:47:45;;;;;;;2.50;2.30;;;;;;;32.22;36.47;99718.21;1767574;80;21046;-67